Time;durP1;ratioP1;P1;durP2;ratioP2;P2;SDS_P1;SDS_P2;PMS_P1;PMS_P2;Temp;Humidity;BMP_temperature;BMP_pressure;BME280_temperature;BME280_humidity;BME280_pressure;Samples;Min_cycle;Max_cycle;Signal;HPM_P1;HPM_P2
2023/08/11 00:00:21;;;;;;;0.10;0.10;;;;;;;14.29;100.00;101859.34;5051824;28;20025;-48
2023/08/11 00:02:49;;;;;;;0.10;0.10;;;;;;;14.24;100.00;101862.63;5052225;28;20052;-49
2023/08/11 00:05:17;;;;;;;0.10;0.10;;;;;;;14.25;100.00;101864.38;5052235;28;20143;-50
2023/08/11 00:07:43;;;;;;;0.10;0.10;;;;;;;14.24;100.00;101860.03;5051406;28;20116;-48
2023/08/11 00:10:09;;;;;;;0.10;0.10;;;;;;;14.20;100.00;101860.78;5052328;28;20021;-48
2023/08/11 00:12:35;;;;;;;0.10;0.10;;;;;;;14.14;100.00;101867.53;5051675;28;20040;-49
2023/08/11 00:15:00;;;;;;;0.10;0.10;;;;;;;14.11;100.00;101867.44;5051974;28;20027;-49
2023/08/11 00:17:25;;;;;;;0.10;0.10;;;;;;;14.10;100.00;101860.50;5052275;28;20111;-48
2023/08/11 00:19:51;;;;;;;0.10;0.10;;;;;;;14.07;100.00;101863.00;5052061;28;20094;-49
2023/08/11 00:22:17;;;;;;;0.10;0.10;;;;;;;14.09;100.00;101863.91;5051836;28;20109;-48
2023/08/11 00:24:42;;;;;;;0.10;0.10;;;;;;;14.09;100.00;101857.84;5051910;28;20021;-49
2023/08/11 00:27:07;;;;;;;0.10;0.10;;;;;;;14.04;100.00;101865.47;5051777;28;20047;-50
2023/08/11 00:29:33;;;;;;;0.10;0.10;;;;;;;14.03;100.00;101858.53;5051356;28;20110;-49
2023/08/11 00:32:00;;;;;;;0.00;0.00;;;;;;;13.99;100.00;101867.03;5052376;28;20025;-49
2023/08/11 00:34:25;;;;;;;0.10;0.10;;;;;;;13.97;100.00;101858.34;5050902;28;20036;-49
2023/08/11 00:36:50;;;;;;;0.10;0.10;;;;;;;13.98;100.00;101860.09;5052128;28;20025;-48
2023/08/11 00:39:16;;;;;;;0.10;0.10;;;;;;;13.96;100.00;101861.78;5054546;28;20033;-49
2023/08/11 00:41:41;;;;;;;0.10;0.10;;;;;;;13.90;100.00;101858.97;5054546;28;20028;-48
2023/08/11 00:44:07;;;;;;;0.10;0.10;;;;;;;13.90;100.00;101862.44;5055744;28;20049;-49
2023/08/11 00:46:32;;;;;;;0.10;0.10;;;;;;;13.89;100.00;101864.97;5055031;28;20063;-49
2023/08/11 00:48:58;;;;;;;0.10;0.10;;;;;;;13.91;100.00;101852.97;5054790;28;20550;-50
2023/08/11 00:51:24;;;;;;;0.10;0.10;;;;;;;13.89;100.00;101844.25;5055255;28;20047;-47
2023/08/11 00:53:51;;;;;;;0.10;0.10;;;;;;;13.82;100.00;101838.88;5055405;28;20028;-49
2023/08/11 00:56:21;;;;;;;0.10;0.10;;;;;;;13.80;100.00;101840.56;5054511;28;20025;-49
2023/08/11 00:58:49;;;;;;;0.15;0.15;;;;;;;13.78;100.00;101837.03;5055381;28;20032;-48
2023/08/11 01:01:14;;;;;;;0.10;0.10;;;;;;;13.75;100.00;101830.84;5054925;28;20064;-48
2023/08/11 01:03:42;;;;;;;0.10;0.10;;;;;;;13.75;100.00;101823.97;5054384;28;20098;-49
2023/08/11 01:06:32;;;;;;;0.10;0.10;;;;;;;13.74;100.00;101829.13;5055143;28;20032;-48
2023/08/11 01:09:11;;;;;;;0.10;0.10;;;;;;;13.68;100.00;101823.72;5054974;28;20037;-47
2023/08/11 01:11:59;;;;;;;0.10;0.10;;;;;;;13.68;100.00;101829.78;5054389;28;20025;-49
2023/08/11 01:14:33;;;;;;;0.10;0.10;;;;;;;13.60;100.00;101831.25;5054835;28;20041;-49
2023/08/11 01:17:01;;;;;;;0.10;0.10;;;;;;;13.55;100.00;101819.84;5054087;28;20045;-48
2023/08/11 01:19:28;;;;;;;;;;;;;;;13.71;100.00;101823.81;5054933;28;20397;-50
2023/08/11 01:21:57;;;;;;;0.10;0.10;;;;;;;13.54;100.00;101815.50;5054986;28;19913;-48
2023/08/11 01:24:23;;;;;;;0.10;0.10;;;;;;;13.55;100.00;101818.13;5053862;28;20025;-45
2023/08/11 01:26:48;;;;;;;0.10;0.10;;;;;;;13.52;100.00;101810.28;5054665;28;20017;-49
2023/08/11 01:29:13;;;;;;;0.10;0.10;;;;;;;13.56;100.00;101811.25;5054292;28;20119;-49
2023/08/11 01:31:39;;;;;;;0.10;0.10;;;;;;;13.48;100.00;101800.66;5054220;28;20029;-49
2023/08/11 01:34:04;;;;;;;0.10;0.10;;;;;;;13.50;100.00;101801.56;5054823;28;20365;-50
2023/08/11 01:36:30;;;;;;;0.10;0.10;;;;;;;13.49;100.00;101805.88;5054227;28;20025;-48
2023/08/11 01:38:55;;;;;;;0.10;0.10;;;;;;;13.52;100.00;101809.38;5053797;28;20021;-48
2023/08/11 01:41:20;;;;;;;0.10;0.10;;;;;;;13.52;100.00;101811.97;5054461;28;20142;-48
2023/08/11 01:43:47;;;;;;;0.20;0.20;;;;;;;13.49;100.00;101813.66;5053864;28;20096;-47
2023/08/11 01:46:12;;;;;;;0.13;0.13;;;;;;;13.51;100.00;101816.28;5053508;28;20511;-49
2023/08/11 01:48:38;;;;;;;0.10;0.10;;;;;;;13.45;100.00;101816.97;5054170;28;20025;-47
2023/08/11 01:51:04;;;;;;;0.10;0.10;;;;;;;13.40;100.00;101808.16;5053374;28;20032;-47
2023/08/11 01:53:29;;;;;;;0.10;0.10;;;;;;;13.39;100.00;101811.59;5053469;28;20029;-49
2023/08/11 01:55:55;;;;;;;0.20;0.20;;;;;;;13.38;100.00;101819.31;5054279;28;20020;-49
2023/08/11 01:58:20;;;;;;;0.10;0.10;;;;;;;13.38;100.00;101815.00;5053935;28;20025;-49
2023/08/11 02:00:46;;;;;;;0.10;0.10;;;;;;;13.37;100.00;101802.88;5053222;28;20032;-49
2023/08/11 02:03:12;;;;;;;0.10;0.10;;;;;;;13.33;100.00;101801.84;5054219;28;20021;-49
2023/08/11 02:05:38;;;;;;;0.10;0.10;;;;;;;13.31;100.00;101797.44;5053367;28;20017;-47
2023/08/11 02:08:04;;;;;;;0.10;0.10;;;;;;;13.30;100.00;101791.41;5053822;28;20033;-49
2023/08/11 02:10:30;;;;;;;0.10;0.10;;;;;;;13.31;100.00;101794.84;5053774;28;20021;-49
2023/08/11 02:12:55;;;;;;;0.17;0.17;;;;;;;13.32;100.00;101794.94;5053085;28;20029;-47
2023/08/11 02:15:20;;;;;;;0.10;0.10;;;;;;;13.30;100.00;101793.13;5053993;28;20017;-48
2023/08/11 02:17:45;;;;;;;0.10;0.10;;;;;;;13.29;100.00;101787.03;5053615;28;20017;-49
2023/08/11 02:22:45;;;;;;;0.10;0.10;;;;;;;13.20;100.00;101789.31;5053574;28;20033;-49
2023/08/11 02:25:11;;;;;;;0.10;0.10;;;;;;;13.18;100.00;101788.38;5053599;28;20397;-50
2023/08/11 02:27:36;;;;;;;0.10;0.10;;;;;;;13.17;100.00;101784.94;5052499;28;20021;-47
2023/08/11 02:30:05;;;;;;;0.10;0.10;;;;;;;13.19;100.00;101777.19;5054001;28;20112;-49
2023/08/11 02:32:31;;;;;;;0.10;0.10;;;;;;;13.12;100.00;101789.06;5052938;28;20484;-48
2023/08/11 02:34:56;;;;;;;0.10;0.10;;;;;;;13.11;100.00;101795.06;5053105;28;20017;-50
2023/08/11 02:37:21;;;;;;;0.10;0.10;;;;;;;13.12;100.00;101791.66;5053424;28;20094;-49
2023/08/11 02:39:47;;;;;;;0.10;0.10;;;;;;;13.07;100.00;101793.19;5052985;28;20036;-49
2023/08/11 02:42:12;;;;;;;0.20;0.20;;;;;;;13.17;100.00;101794.41;5052689;28;20108;-48
2023/08/11 02:44:37;;;;;;;0.10;0.10;;;;;;;13.10;100.00;101793.28;5052770;28;20043;-49
2023/08/11 02:47:03;;;;;;;0.10;0.10;;;;;;;13.05;100.00;101801.75;5053024;28;20120;-50
2023/08/11 02:49:28;;;;;;;0.10;0.10;;;;;;;12.99;100.00;101799.84;5052479;28;20037;-49
2023/08/11 02:51:53;;;;;;;0.13;0.13;;;;;;;12.95;100.00;101792.75;5053285;28;20032;-49
2023/08/11 02:54:20;;;;;;;0.10;0.10;;;;;;;12.92;100.00;101800.44;5053006;28;20123;-49
2023/08/11 02:56:47;;;;;;;0.10;0.10;;;;;;;12.94;100.00;101803.97;5052313;28;20128;-49
2023/08/11 02:59:12;;;;;;;0.10;0.10;;;;;;;12.88;100.00;101801.16;5052934;28;20029;-49
2023/08/11 03:01:39;;;;;;;0.10;0.10;;;;;;;12.87;100.00;101800.25;5052575;28;20420;-45
2023/08/11 03:04:05;;;;;;;0.17;0.17;;;;;;;12.76;100.00;101799.03;5052674;28;20079;-48
2023/08/11 03:06:30;;;;;;;0.10;0.10;;;;;;;12.67;100.00;101796.97;5052799;28;20275;-48
2023/08/11 03:08:55;;;;;;;0.10;0.10;;;;;;;12.64;100.00;101797.75;5052286;28;20066;-47
2023/08/11 03:11:21;;;;;;;0.20;0.20;;;;;;;12.63;100.00;101802.88;5052745;28;20139;-50
2023/08/11 03:13:46;;;;;;;0.10;0.10;;;;;;;12.65;100.00;101794.34;5052667;28;20033;-48
2023/08/11 03:16:11;;;;;;;0.10;0.10;;;;;;;12.73;100.00;101785.97;5052024;28;20440;-47
2023/08/11 03:18:37;;;;;;;0.00;0.00;;;;;;;12.76;100.00;101786.09;5052675;28;20036;-49
2023/08/11 03:21:02;;;;;;;0.10;0.10;;;;;;;12.77;100.00;101783.53;5052767;28;20025;-49
2023/08/11 03:23:28;;;;;;;0.10;0.10;;;;;;;12.72;100.00;101785.09;5051798;28;20027;-49
2023/08/11 03:25:54;;;;;;;0.10;0.10;;;;;;;12.72;100.00;101787.69;5052851;28;20116;-47
2023/08/11 03:28:20;;;;;;;0.10;0.10;;;;;;;12.73;100.00;101786.84;5052572;28;20117;-47
2023/08/11 03:30:45;;;;;;;0.10;0.10;;;;;;;12.69;100.00;101787.53;5051765;28;20439;-48
2023/08/11 03:33:10;;;;;;;0.10;0.10;;;;;;;12.63;100.00;101790.81;5052884;28;20064;-50
2023/08/11 03:35:35;;;;;;;0.20;0.20;;;;;;;12.69;100.00;101790.13;5052202;28;20022;-49
2023/08/11 03:38:01;;;;;;;0.10;0.10;;;;;;;12.64;100.00;101782.22;5052110;28;20112;-47
2023/08/11 03:40:29;;;;;;;0.10;0.10;;;;;;;12.59;100.00;101796.69;5052379;28;20021;-49
2023/08/11 03:42:55;;;;;;;0.10;0.10;;;;;;;12.63;100.00;101789.94;5052331;28;20017;-49
2023/08/11 03:45:20;;;;;;;0.10;0.10;;;;;;;12.65;100.00;101785.69;5052114;28;20119;-48
2023/08/11 03:47:45;;;;;;;0.10;0.10;;;;;;;12.69;100.00;101790.13;5052299;28;20037;-49
2023/08/11 03:50:11;;;;;;;0.10;0.10;;;;;;;12.66;100.00;101784.84;5052421;28;20469;-49
2023/08/11 03:52:37;;;;;;;0.20;0.20;;;;;;;12.63;100.00;101779.59;5051703;28;20021;-48
2023/08/11 03:55:03;;;;;;;0.10;0.10;;;;;;;12.63;100.00;101774.41;5052707;28;20025;-49
2023/08/11 03:57:29;;;;;;;0.20;0.20;;;;;;;12.61;100.00;101774.34;5051799;28;20021;-47
2023/08/11 03:59:54;;;;;;;0.10;0.10;;;;;;;12.54;100.00;101777.53;5052185;28;20032;-48
2023/08/11 04:02:19;;;;;;;0.10;0.10;;;;;;;12.55;100.00;101773.25;5052597;28;20457;-49
2023/08/11 04:04:48;;;;;;;0.20;0.20;;;;;;;12.50;100.00;101771.38;5051918;28;20031;-50
2023/08/11 04:07:13;;;;;;;0.10;0.10;;;;;;;12.51;100.00;101770.56;5051721;28;20353;-49
2023/08/11 04:09:43;;;;;;;0.10;0.10;;;;;;;12.51;100.00;101780.00;5052103;28;20488;-49
2023/08/11 04:12:09;;;;;;;0.10;0.10;;;;;;;12.56;100.00;101775.00;5052096;28;20029;-49
2023/08/11 04:14:35;;;;;;;0.10;0.10;;;;;;;12.51;100.00;101783.47;5054807;28;20021;-48
2023/08/11 04:17:00;;;;;;;0.10;0.10;;;;;;;12.49;100.00;101781.66;5056191;28;20389;-47
2023/08/11 04:19:26;;;;;;;0.10;0.10;;;;;;;12.54;100.00;101784.41;5055038;28;20435;-49
2023/08/11 04:21:51;;;;;;;0.10;0.10;;;;;;;12.48;100.00;101775.59;5055988;28;20025;-48
2023/08/11 04:24:17;;;;;;;0.20;0.20;;;;;;;12.52;100.00;101782.66;5055879;28;20423;-45
2023/08/11 04:26:43;;;;;;;0.10;0.10;;;;;;;12.50;100.00;101784.31;5054852;28;20116;-47
2023/08/11 04:29:08;;;;;;;0.10;0.10;;;;;;;12.46;100.00;101777.25;5055960;28;20063;-46
2023/08/11 04:31:34;;;;;;;0.10;0.10;;;;;;;12.49;100.00;101785.13;5055732;28;20107;-48
2023/08/11 04:33:59;;;;;;;0.10;0.10;;;;;;;12.51;100.00;101786.06;5055148;28;20021;-44
2023/08/11 04:36:25;;;;;;;0.10;0.10;;;;;;;12.50;100.00;101779.13;5055516;28;20048;-45
2023/08/11 04:38:51;;;;;;;0.10;0.10;;;;;;;12.52;100.00;101776.59;5055634;28;20020;-48
2023/08/11 04:41:16;;;;;;;0.10;0.10;;;;;;;12.52;100.00;101776.59;5055012;28;20391;-49
2023/08/11 04:43:41;;;;;;;0.10;0.10;;;;;;;12.57;100.00;101779.34;5055205;28;20532;-49
2023/08/11 04:46:07;;;;;;;0.20;0.20;;;;;;;12.52;100.00;101772.31;5055118;28;20048;-44
2023/08/11 04:48:32;;;;;;;0.10;0.10;;;;;;;12.60;100.00;101770.00;5054493;28;20381;-49
2023/08/11 04:50:58;;;;;;;0.10;0.10;;;;;;;12.64;100.00;101770.97;5055326;28;20067;-48
2023/08/11 04:53:24;;;;;;;0.17;0.17;;;;;;;12.62;100.00;101768.34;5054845;28;20439;-43
2023/08/11 04:55:51;;;;;;;0.10;0.10;;;;;;;12.68;100.00;101770.28;5054743;28;20025;-46
2023/08/11 04:58:16;;;;;;;0.10;0.10;;;;;;;12.73;100.00;101761.00;5055503;28;20030;-49
2023/08/11 05:00:43;;;;;;;0.17;0.17;;;;;;;12.74;100.00;101761.84;5054684;28;20041;-48
2023/08/11 05:03:08;;;;;;;0.10;0.10;;;;;;;12.80;100.00;101757.78;5054822;28;20029;-49
2023/08/11 05:05:34;;;;;;;0.17;0.17;;;;;;;12.91;100.00;101757.25;5054892;28;20025;-46
2023/08/11 05:07:59;;;;;;;0.10;0.10;;;;;;;12.99;100.00;101753.25;5054853;28;20384;-49
2023/08/11 05:10:25;;;;;;;0.20;0.20;;;;;;;13.07;100.00;101751.78;5054128;28;20388;-49
2023/08/11 05:12:50;;;;;;;0.10;0.10;;;;;;;13.20;100.00;101747.03;5054958;28;20060;-49
2023/08/11 05:15:15;;;;;;;0.20;0.20;;;;;;;13.19;100.00;101748.72;5054820;28;20021;-43
2023/08/11 05:17:41;;;;;;;0.10;0.10;;;;;;;13.33;100.00;101744.88;5054295;28;20040;-44
2023/08/11 05:20:10;;;;;;;0.10;0.10;;;;;;;13.42;100.00;101746.94;5055070;28;20028;-48
2023/08/11 05:22:36;;;;;;;0.20;0.20;;;;;;;13.53;100.00;101755.06;5053844;28;20033;-47
2023/08/11 05:25:03;;;;;;;0.10;0.10;;;;;;;13.63;100.00;101749.34;5053479;28;20040;-46
2023/08/11 05:27:28;;;;;;;0.20;0.20;;;;;;;13.72;100.00;101753.91;5054588;28;20025;-49
2023/08/11 05:29:53;;;;;;;0.10;0.10;;;;;;;13.80;100.00;101747.28;5054078;28;20078;-46
2023/08/11 05:32:19;;;;;;;0.17;0.17;;;;;;;13.90;100.00;101752.72;5054761;28;20028;-50
2023/08/11 05:34:45;;;;;;;0.10;0.10;;;;;;;13.99;100.00;101747.81;5054299;28;20025;-47
2023/08/11 05:37:10;;;;;;;0.20;0.20;;;;;;;14.06;100.00;101743.69;5053974;28;20032;-47
2023/08/11 05:39:38;;;;;;;0.10;0.10;;;;;;;14.14;100.00;101737.91;5054091;28;20830;-47
2023/08/11 05:42:05;;;;;;;0.10;0.10;;;;;;;14.21;100.00;101738.09;5054439;28;20032;-49
2023/08/11 05:44:30;;;;;;;0.10;0.10;;;;;;;14.31;100.00;101738.38;5053674;28;20053;-47
2023/08/11 05:46:55;;;;;;;0.17;0.17;;;;;;;14.39;100.00;101736.00;5054265;28;20393;-49
2023/08/11 05:49:21;;;;;;;0.10;0.10;;;;;;;14.51;100.00;101742.38;5054190;28;20029;-50
2023/08/11 05:51:46;;;;;;;0.10;0.10;;;;;;;14.56;100.00;101740.78;5053512;28;20021;-47
2023/08/11 05:54:11;;;;;;;0.10;0.10;;;;;;;14.63;100.00;101743.59;5054305;28;20037;-49
2023/08/11 05:56:37;;;;;;;0.10;0.10;;;;;;;14.74;100.00;101741.31;5053859;28;20037;-44
2023/08/11 05:59:02;;;;;;;0.10;0.10;;;;;;;14.84;100.00;101750.25;5053534;28;20411;-45
2023/08/11 06:01:27;;;;;;;0.10;0.10;;;;;;;14.93;100.00;101739.22;5053678;28;20487;-49
2023/08/11 06:03:53;;;;;;;0.10;0.10;;;;;;;15.02;100.00;101747.25;5053879;28;20032;-45
2023/08/11 06:06:18;;;;;;;0.10;0.10;;;;;;;15.09;100.00;101743.97;5053506;28;20029;-49
2023/08/11 06:08:43;;;;;;;0.10;0.10;;;;;;;15.21;100.00;101747.69;5053501;28;20059;-49
2023/08/11 06:11:09;;;;;;;0.10;0.10;;;;;;;15.31;100.00;101749.69;5053851;28;20032;-49
2023/08/11 06:13:34;;;;;;;0.10;0.10;;;;;;;15.41;100.00;101753.41;5053211;28;20488;-45
2023/08/11 06:15:59;;;;;;;0.10;0.10;;;;;;;15.54;100.00;101746.78;5053864;28;20056;-46
2023/08/11 06:18:24;;;;;;;0.15;0.15;;;;;;;15.62;100.00;101745.22;5053076;28;20389;-44
2023/08/11 06:20:50;;;;;;;0.10;0.10;;;;;;;15.73;100.00;101750.69;5053355;28;20021;-45
2023/08/11 06:23:15;;;;;;;0.10;0.10;;;;;;;15.88;100.00;101752.75;5053607;28;20051;-44
2023/08/11 06:25:41;;;;;;;0.10;0.10;;;;;;;16.01;100.00;101753.91;5053083;28;20032;-48
2023/08/11 06:28:07;;;;;;;0.10;0.10;;;;;;;16.13;100.00;101754.19;5053171;28;20074;-49
2023/08/11 06:30:33;;;;;;;0.10;0.10;;;;;;;16.20;100.00;101758.66;5053144;28;20100;-47
2023/08/11 06:32:58;;;;;;;0.10;0.10;;;;;;;16.30;100.00;101762.34;5052750;28;20479;-50
2023/08/11 06:35:24;;;;;;;0.10;0.10;;;;;;;16.47;100.00;101754.88;5052871;28;20021;-45
2023/08/11 06:37:49;;;;;;;0.10;0.10;;;;;;;16.56;100.00;101760.25;5053163;28;20036;-51
2023/08/11 06:40:15;;;;;;;0.10;0.10;;;;;;;16.67;100.00;101763.06;5052804;28;20879;-50
2023/08/11 06:42:41;;;;;;;0.10;0.10;;;;;;;16.74;100.00;101764.91;5052896;28;20416;-49
2023/08/11 06:45:06;;;;;;;0.10;0.10;;;;;;;16.93;100.00;101765.31;5053002;28;20102;-48
2023/08/11 06:47:34;;;;;;;0.10;0.10;;;;;;;17.07;100.00;101762.97;5052437;28;20111;-48
2023/08/11 06:49:59;;;;;;;;;;;;;;;17.12;100.00;101763.91;5053628;28;20017;-49
2023/08/11 06:52:26;;;;;;;0.10;0.10;;;;;;;17.32;100.00;101766.84;5052574;28;19912;-49
2023/08/11 06:54:51;;;;;;;0.10;0.10;;;;;;;17.43;100.00;101778.31;5052404;28;20283;-46
2023/08/11 06:57:20;;;;;;;0.10;0.10;;;;;;;17.56;100.00;101778.53;5053218;28;20021;-48
2023/08/11 06:59:47;;;;;;;0.00;0.00;;;;;;;17.63;100.00;101769.94;5052726;28;20103;-45
2023/08/11 07:02:12;;;;;;;0.10;0.10;;;;;;;17.79;100.00;101776.22;5052356;28;20443;-50
2023/08/11 07:04:37;;;;;;;0.00;0.00;;;;;;;17.89;100.00;101774.66;5052710;28;20025;-48
2023/08/11 07:07:03;;;;;;;0.10;0.10;;;;;;;18.02;100.00;101784.41;5052697;28;20459;-45
2023/08/11 07:09:28;;;;;;;0.08;0.08;;;;;;;18.18;100.00;101774.19;5052002;28;20032;-45
2023/08/11 07:11:53;;;;;;;0.10;0.10;;;;;;;18.29;100.00;101777.81;5053014;28;20087;-48
2023/08/11 07:14:19;;;;;;;0.10;0.10;;;;;;;18.43;100.00;101776.25;5052423;28;20021;-50
2023/08/11 07:16:44;;;;;;;0.10;0.10;;;;;;;18.53;100.00;101779.00;5051961;28;20116;-50
2023/08/11 07:19:09;;;;;;;0.00;0.00;;;;;;;18.74;100.00;101781.81;5052897;28;20107;-50
2023/08/11 07:21:35;;;;;;;0.10;0.10;;;;;;;18.89;100.00;101777.63;5052213;28;20070;-47
2023/08/11 07:24:00;;;;;;;0.00;0.00;;;;;;;19.05;100.00;101781.28;5052427;28;20032;-51
2023/08/11 07:26:25;;;;;;;0.00;0.00;;;;;;;19.17;100.00;101776.19;5052648;28;20044;-47
2023/08/11 07:28:51;;;;;;;0.10;0.10;;;;;;;19.27;100.00;101782.34;5052485;28;20029;-51
2023/08/11 07:31:16;;;;;;;0.10;0.10;;;;;;;19.30;100.00;101782.41;5052361;28;20029;-50
2023/08/11 07:33:42;;;;;;;0.10;0.10;;;;;;;19.42;100.00;101782.47;5052466;28;20453;-48
2023/08/11 07:36:09;;;;;;;0.00;0.00;;;;;;;19.54;100.00;101780.81;5052398;28;20483;-46
2023/08/11 07:38:34;;;;;;;0.00;0.00;;;;;;;19.70;100.00;101789.66;5052029;28;20155;-49
2023/08/11 07:41:00;;;;;;;0.10;0.10;;;;;;;19.79;100.00;101786.22;5052474;28;20104;-47
2023/08/11 07:43:25;;;;;;;0.00;0.00;;;;;;;19.95;100.00;101788.09;5051454;28;20033;-46
2023/08/11 07:45:50;;;;;;;0.00;0.00;;;;;;;20.09;98.33;101785.56;5052411;28;20497;-50
2023/08/11 07:48:18;;;;;;;0.05;0.05;;;;;;;20.21;100.00;101782.13;5053282;28;20448;-51
2023/08/11 07:50:43;;;;;;;0.00;0.00;;;;;;;20.35;99.57;101784.81;5055874;28;20037;-49
2023/08/11 07:53:09;;;;;;;0.00;0.00;;;;;;;20.48;97.60;101790.97;5056755;28;20373;-49
2023/08/11 07:55:34;;;;;;;0.10;0.10;;;;;;;20.59;95.02;101794.47;5055980;28;20024;-48
2023/08/11 07:58:00;;;;;;;0.00;0.00;;;;;;;20.72;95.30;101798.94;5056068;28;20488;-51
2023/08/11 08:00:25;;;;;;;0.10;0.10;;;;;;;20.94;92.21;101798.97;5056195;28;20027;-50
2023/08/11 08:02:54;;;;;;;0.00;0.00;;;;;;;21.03;90.13;101793.75;5056178;28;20052;-47
2023/08/11 08:05:20;;;;;;;0.10;0.10;;;;;;;21.17;90.73;101792.88;5055697;28;20071;-52
2023/08/11 08:07:46;;;;;;;0.10;0.10;;;;;;;21.24;87.79;101786.78;5056100;28;20032;-51
2023/08/11 08:10:13;;;;;;;0.00;0.00;;;;;;;21.37;89.10;101801.63;5056279;28;20059;-51
2023/08/11 08:12:39;;;;;;;;;;;;;;;21.47;92.59;101801.59;5055883;28;20040;-50
2023/08/11 08:15:06;;;;;;;0.00;0.00;;;;;;;21.52;88.02;101791.97;5056264;28;19917;-51
2023/08/11 08:17:31;;;;;;;0.00;0.00;;;;;;;21.66;87.83;101790.25;5055597;28;20028;-51
2023/08/11 08:19:57;;;;;;;0.00;0.00;;;;;;;21.77;83.63;101797.22;5055495;28;20021;-52
2023/08/11 08:22:22;;;;;;;0.00;0.00;;;;;;;21.90;85.46;101790.19;5055710;28;20082;-50
2023/08/11 08:24:48;;;;;;;0.10;0.10;;;;;;;21.96;82.48;101783.22;5055926;28;20096;-49
2023/08/11 08:27:15;;;;;;;0.00;0.00;;;;;;;22.06;81.55;101785.81;5055333;28;20477;-51
2023/08/11 08:29:40;;;;;;;0.00;0.00;;;;;;;22.22;81.58;101787.50;5055571;28;20025;-48
2023/08/11 08:32:06;;;;;;;0.00;0.00;;;;;;;22.36;81.08;101788.34;5055581;28;20074;-51
2023/08/11 08:34:31;;;;;;;0.00;0.00;;;;;;;22.50;79.47;101788.28;5054846;28;20021;-50
2023/08/11 08:36:56;;;;;;;0.00;0.00;;;;;;;22.60;76.53;101786.47;5055730;28;20021;-50
2023/08/11 08:39:22;;;;;;;0.00;0.00;;;;;;;22.73;79.15;101795.16;5055707;28;20043;-51
2023/08/11 08:41:49;;;;;;;0.00;0.00;;;;;;;22.79;72.16;101797.75;5055211;28;20024;-51
2023/08/11 08:44:15;;;;;;;0.00;0.00;;;;;;;22.85;73.13;101799.44;5055420;28;20068;-50
2023/08/11 08:46:41;;;;;;;0.00;0.00;;;;;;;23.00;75.17;101799.34;5054789;28;20056;-51
2023/08/11 08:49:15;;;;;;;0.00;0.00;;;;;;;23.12;74.87;101792.25;5055425;28;20025;-51
2023/08/11 08:51:40;;;;;;;0.00;0.00;;;;;;;23.22;72.87;101796.59;5055233;28;20091;-51
2023/08/11 08:54:09;;;;;;;0.00;0.00;;;;;;;23.40;72.96;101797.34;5054969;28;20028;-48
2023/08/11 08:56:36;;;;;;;0.00;0.00;;;;;;;23.49;70.62;101795.47;5054911;28;20033;-51
2023/08/11 08:59:01;;;;;;;0.00;0.00;;;;;;;23.62;72.03;101792.75;5055020;28;20025;-50
2023/08/11 09:01:28;;;;;;;0.00;0.00;;;;;;;23.68;69.37;101790.91;5054468;28;20013;-51
2023/08/11 09:03:55;;;;;;;0.00;0.00;;;;;;;23.86;70.36;101799.50;5055643;28;20106;-51
2023/08/11 09:06:21;;;;;;;0.00;0.00;;;;;;;23.78;67.86;101790.81;5055103;28;20024;-50
2023/08/11 09:08:47;;;;;;;0.00;0.00;;;;;;;23.84;71.07;101791.59;5054278;28;20040;-50
2023/08/11 09:11:12;;;;;;;0.00;0.00;;;;;;;23.99;68.47;101785.34;5055188;28;20064;-49
2023/08/11 09:13:38;;;;;;;0.00;0.00;;;;;;;24.17;70.07;101793.94;5054472;28;20071;-51
2023/08/11 09:16:03;;;;;;;0.00;0.00;;;;;;;24.36;70.87;101797.19;5054356;28;20621;-51
2023/08/11 09:18:29;;;;;;;0.00;0.00;;;;;;;24.39;66.54;101802.44;5054887;28;20029;-47
2023/08/11 09:20:54;;;;;;;0.00;0.00;;;;;;;24.44;67.33;101799.72;5054907;28;20049;-50
2023/08/11 09:23:19;;;;;;;0.00;0.00;;;;;;;24.61;66.52;101792.47;5054343;28;20029;-50
2023/08/11 09:25:49;;;;;;;0.00;0.00;;;;;;;24.72;66.80;101786.19;5054595;28;20028;-50
2023/08/11 09:28:14;;;;;;;0.00;0.00;;;;;;;24.88;66.98;101789.47;5054368;28;20473;-51
2023/08/11 09:30:41;;;;;;;0.00;0.00;;;;;;;25.09;67.44;101783.00;5053880;28;20051;-50
2023/08/11 09:33:07;;;;;;;0.00;0.00;;;;;;;25.22;64.66;101791.59;5054903;28;20017;-46
2023/08/11 09:35:33;;;;;;;0.00;0.00;;;;;;;25.42;63.84;101789.50;5054322;28;20017;-51
2023/08/11 09:38:00;;;;;;;0.00;0.00;;;;;;;25.75;61.96;101788.91;5054136;28;20070;-48
2023/08/11 09:40:26;;;;;;;0.00;0.00;;;;;;;26.19;59.88;101781.91;5054052;28;20069;-45
2023/08/11 09:42:56;;;;;;;0.00;0.00;;;;;;;26.55;59.49;101784.63;5054073;28;20021;-50
2023/08/11 09:45:22;;;;;;;0.00;0.00;;;;;;;26.67;56.01;101787.91;5054182;28;20502;-51
2023/08/11 09:47:48;;;;;;;0.00;0.00;;;;;;;26.84;57.30;101785.75;5054022;28;20388;-51
2023/08/11 09:50:14;;;;;;;0.00;0.00;;;;;;;26.66;55.10;101780.88;5053988;28;20485;-50
2023/08/11 09:52:41;;;;;;;0.00;0.00;;;;;;;26.59;56.04;101775.72;5054251;28;20029;-48
2023/08/11 09:55:09;;;;;;;0.00;0.00;;;;;;;26.55;55.68;101782.00;5054259;28;20279;-51
2023/08/11 09:57:36;;;;;;;0.00;0.00;;;;;;;26.78;57.63;101785.94;5053451;28;20492;-47
2023/08/11 10:00:04;;;;;;;0.00;0.00;;;;;;;26.99;56.81;101786.31;5054347;28;20476;-49
2023/08/11 10:02:33;;;;;;;0.00;0.00;;;;;;;27.07;56.96;101787.00;5053624;28;20122;-50
2023/08/11 10:05:06;;;;;;;0.00;0.00;;;;;;;27.12;54.79;101790.41;5053606;28;20029;-50
2023/08/11 10:07:34;;;;;;;0.00;0.00;;;;;;;27.25;52.87;101786.53;5053955;28;20033;-47
2023/08/11 10:10:03;;;;;;;0.00;0.00;;;;;;;27.70;53.43;101793.31;5053657;28;20461;-51
2023/08/11 10:12:28;;;;;;;0.00;0.00;;;;;;;27.89;52.81;101792.84;5052403;28;20029;-50
2023/08/11 10:14:54;;;;;;;0.00;0.00;;;;;;;27.85;51.32;101802.66;5054062;28;20039;-50
2023/08/11 10:17:20;;;;;;;0.00;0.00;;;;;;;28.25;51.07;101795.34;5053627;28;20023;-49
2023/08/11 10:19:46;;;;;;;0.05;0.00;;;;;;;28.79;49.76;101791.06;5053173;28;20107;-49
2023/08/11 10:22:11;;;;;;;0.00;0.00;;;;;;;29.56;49.10;101790.31;5053826;28;20439;-50
2023/08/11 10:24:37;;;;;;;0.00;0.00;;;;;;;29.85;45.21;101783.94;5053349;28;20044;-47
2023/08/11 10:27:05;;;;;;;0.03;0.00;;;;;;;30.16;44.06;101788.16;5053038;28;20385;-50
2023/08/11 10:29:31;;;;;;;0.00;0.00;;;;;;;30.21;43.93;101783.53;5053135;28;20032;-50
2023/08/11 10:31:58;;;;;;;0.00;0.00;;;;;;;30.74;41.91;101792.09;5053784;28;20025;-49
2023/08/11 10:34:24;;;;;;;0.30;0.10;;;;;;;31.12;42.02;101789.69;5052800;28;20021;-46
2023/08/11 10:36:55;;;;;;;0.00;0.00;;;;;;;31.32;42.19;101787.97;5053177;28;20129;-49
2023/08/11 10:39:21;;;;;;;0.00;0.00;;;;;;;31.62;39.97;101779.59;5052785;28;20523;-46
2023/08/11 10:41:47;;;;;;;0.00;0.00;;;;;;;31.95;40.44;101787.00;5053376;28;20024;-49
2023/08/11 10:44:18;;;;;;;0.00;0.00;;;;;;;32.13;38.79;101787.97;5053379;28;20032;-51
2023/08/11 10:46:45;;;;;;;0.00;0.00;;;;;;;32.20;38.64;101792.09;5052247;28;20413;-51
2023/08/11 10:49:10;;;;;;;0.00;0.00;;;;;;;32.06;38.47;101782.06;5053258;28;20551;-49
2023/08/11 10:51:39;;;;;;;0.00;0.00;;;;;;;32.49;37.39;101784.50;5052763;28;20036;-45
2023/08/11 10:54:09;;;;;;;0.00;0.00;;;;;;;32.47;37.51;101783.72;5052610;28;20033;-51
2023/08/11 10:56:37;;;;;;;0.00;0.00;;;;;;;32.50;37.21;101787.09;5053041;28;20032;-46
2023/08/11 10:59:13;;;;;;;0.00;0.00;;;;;;;32.34;39.32;101783.44;5053078;28;20031;-49
2023/08/11 11:01:40;;;;;;;0.00;0.00;;;;;;;32.52;37.55;101784.34;5052324;28;20033;-50
2023/08/11 11:04:07;;;;;;;0.00;0.00;;;;;;;32.38;37.26;101786.81;5053092;28;20033;-50
2023/08/11 11:06:34;;;;;;;0.00;0.00;;;;;;;32.40;36.91;101780.47;5052487;28;20029;-50
2023/08/11 11:08:59;;;;;;;0.00;0.00;;;;;;;32.67;36.83;101774.75;5052488;28;20033;-51
2023/08/11 11:11:25;;;;;;;0.00;0.00;;;;;;;33.53;36.51;101779.38;5052782;28;20515;-51
2023/08/11 11:13:51;;;;;;;0.00;0.00;;;;;;;33.58;35.25;101777.31;5052850;28;20389;-50
2023/08/11 11:16:18;;;;;;;0.00;0.00;;;;;;;33.92;34.86;101780.84;5052328;28;20150;-50